sensor_id;sensor_type;location;lat;lon;timestamp;pressure;altitude;pressure_sealevel;temperature;humidity
29941;BME280;16801;53.562;10.038;2023-12-22T00:00:39;98802.78;;;6.49;100.00
29941;BME280;16801;53.562;10.038;2023-12-22T00:04:00;98802.56;;;6.42;100.00
29941;BME280;16801;53.562;10.038;2023-12-22T00:07:20;98798.91;;;6.43;100.00
29941;BME280;16801;53.562;10.038;2023-12-22T00:10:41;98803.75;;;6.40;100.00
29941;BME280;16801;53.562;10.038;2023-12-22T00:14:02;98805.09;;;6.44;100.00
29941;BME280;16801;53.562;10.038;2023-12-22T00:17:24;98793.72;;;6.42;100.00
29941;BME280;16801;53.562;10.038;2023-12-22T00:20:46;98814.28;;;6.41;100.00
29941;BME280;16801;53.562;10.038;2023-12-22T00:24:07;98811.59;;;6.33;100.00
29941;BME280;16801;53.562;10.038;2023-12-22T00:27:28;98818.75;;;6.33;100.00
29941;BME280;16801;53.562;10.038;2023-12-22T00:30:49;98812.22;;;6.27;100.00
29941;BME280;16801;53.562;10.038;2023-12-22T00:34:12;98815.22;;;6.24;100.00
29941;BME280;16801;53.562;10.038;2023-12-22T00:37:32;98818.38;;;6.28;100.00
29941;BME280;16801;53.562;10.038;2023-12-22T00:40:53;98818.59;;;6.34;100.00
29941;BME280;16801;53.562;10.038;2023-12-22T00:44:14;98824.25;;;6.23;100.00
29941;BME280;16801;53.562;10.038;2023-12-22T00:47:35;98821.56;;;5.98;100.00
29941;BME280;16801;53.562;10.038;2023-12-22T00:50:57;98836.25;;;5.94;100.00
29941;BME280;16801;53.562;10.038;2023-12-22T00:54:18;98831.59;;;5.96;100.00
29941;BME280;16801;53.562;10.038;2023-12-22T00:57:39;98839.56;;;5.88;100.00
29941;BME280;16801;53.562;10.038;2023-12-22T01:01:00;98828.59;;;5.99;100.00
29941;BME280;16801;53.562;10.038;2023-12-22T01:04:21;98837.25;;;5.93;100.00
29941;BME280;16801;53.562;10.038;2023-12-22T01:07:44;98840.41;;;5.88;100.00
29941;BME280;16801;53.562;10.038;2023-12-22T01:11:05;98827.59;;;5.82;100.00
29941;BME280;16801;53.562;10.038;2023-12-22T01:14:26;98842.63;;;5.75;100.00
29941;BME280;16801;53.562;10.038;2023-12-22T01:17:47;98854.44;;;5.73;100.00
29941;BME280;16801;53.562;10.038;2023-12-22T01:21:08;98870.88;;;5.60;100.00
29941;BME280;16801;53.562;10.038;2023-12-22T01:24:30;98889.81;;;5.66;100.00
29941;BME280;16801;53.562;10.038;2023-12-22T01:27:51;98895.94;;;5.59;100.00
29941;BME280;16801;53.562;10.038;2023-12-22T01:31:12;98898.22;;;5.36;100.00
29941;BME280;16801;53.562;10.038;2023-12-22T01:34:33;98916.13;;;5.09;100.00
29941;BME280;16801;53.562;10.038;2023-12-22T01:37:54;98921.41;;;4.91;100.00
29941;BME280;16801;53.562;10.038;2023-12-22T01:41:18;98922.97;;;4.57;100.00
29941;BME280;16801;53.562;10.038;2023-12-22T01:44:39;98941.84;;;4.46;100.00
29941;BME280;16801;53.562;10.038;2023-12-22T01:48:00;98908.13;;;4.45;100.00
29941;BME280;16801;53.562;10.038;2023-12-22T01:51:21;98921.72;;;4.15;100.00
29941;BME280;16801;53.562;10.038;2023-12-22T01:54:42;98913.44;;;4.08;100.00
29941;BME280;16801;53.562;10.038;2023-12-22T01:58:05;98917.94;;;4.07;100.00
29941;BME280;16801;53.562;10.038;2023-12-22T02:01:27;98905.03;;;4.03;100.00
29941;BME280;16801;53.562;10.038;2023-12-22T02:04:49;98907.53;;;4.14;100.00
29941;BME280;16801;53.562;10.038;2023-12-22T02:08:13;98912.03;;;4.14;100.00
29941;BME280;16801;53.562;10.038;2023-12-22T02:11:37;98899.66;;;4.22;100.00
29941;BME280;16801;53.562;10.038;2023-12-22T02:15:00;98901.72;;;4.38;100.00
29941;BME280;16801;53.562;10.038;2023-12-22T02:18:24;98878.09;;;4.43;100.00
29941;BME280;16801;53.562;10.038;2023-12-22T02:22:02;98888.75;;;4.52;100.00
29941;BME280;16801;53.562;10.038;2023-12-22T02:25:24;98894.00;;;4.44;100.00
29941;BME280;16801;53.562;10.038;2023-12-22T02:28:46;98879.19;;;4.23;100.00
29941;BME280;16801;53.562;10.038;2023-12-22T02:32:11;98880.28;;;4.30;100.00
29941;BME280;16801;53.562;10.038;2023-12-22T02:35:36;98881.53;;;4.35;100.00
29941;BME280;16801;53.562;10.038;2023-12-22T02:38:57;98865.78;;;4.32;100.00
29941;BME280;16801;53.562;10.038;2023-12-22T02:42:21;98863.91;;;4.42;100.00
29941;BME280;16801;53.562;10.038;2023-12-22T02:45:50;98854.88;;;4.53;100.00
29941;BME280;16801;53.562;10.038;2023-12-22T02:49:11;98873.47;;;4.45;100.00
29941;BME280;16801;53.562;10.038;2023-12-22T02:52:33;98885.53;;;4.49;100.00
29941;BME280;16801;53.562;10.038;2023-12-22T02:55:54;98898.16;;;4.56;100.00
29941;BME280;16801;53.562;10.038;2023-12-22T02:59:17;98893.94;;;4.54;100.00
29941;BME280;16801;53.562;10.038;2023-12-22T03:02:38;98897.56;;;4.53;100.00
29941;BME280;16801;53.562;10.038;2023-12-22T03:05:58;98937.03;;;4.59;100.00
29941;BME280;16801;53.562;10.038;2023-12-22T03:09:20;98923.44;;;4.52;100.00
29941;BME280;16801;53.562;10.038;2023-12-22T03:12:41;98916.16;;;4.45;100.00
29941;BME280;16801;53.562;10.038;2023-12-22T03:16:07;98906.59;;;4.42;100.00
29941;BME280;16801;53.562;10.038;2023-12-22T03:19:29;98917.41;;;4.41;100.00
29941;BME280;16801;53.562;10.038;2023-12-22T03:22:50;98914.06;;;4.39;100.00
29941;BME280;16801;53.562;10.038;2023-12-22T03:26:11;98914.91;;;4.39;100.00
29941;BME280;16801;53.562;10.038;2023-12-22T03:29:32;98918.84;;;4.35;100.00
29941;BME280;16801;53.562;10.038;2023-12-22T03:32:54;98916.06;;;4.27;100.00
29941;BME280;16801;53.562;10.038;2023-12-22T03:36:15;98920.59;;;4.17;100.00
29941;BME280;16801;53.562;10.038;2023-12-22T03:39:36;98898.16;;;4.10;100.00
29941;BME280;16801;53.562;10.038;2023-12-22T03:42:57;98902.22;;;4.14;100.00
29941;BME280;16801;53.562;10.038;2023-12-22T03:46:18;98889.56;;;4.16;100.00
29941;BME280;16801;53.562;10.038;2023-12-22T03:49:40;98896.84;;;4.24;100.00
29941;BME280;16801;53.562;10.038;2023-12-22T03:53:01;98892.78;;;4.20;100.00
29941;BME280;16801;53.562;10.038;2023-12-22T03:56:22;98886.44;;;4.30;100.00
29941;BME280;16801;53.562;10.038;2023-12-22T03:59:43;98879.22;;;4.40;100.00
29941;BME280;16801;53.562;10.038;2023-12-22T04:03:04;98878.16;;;4.33;100.00
29941;BME280;16801;53.562;10.038;2023-12-22T04:06:26;98864.50;;;4.36;100.00
29941;BME280;16801;53.562;10.038;2023-12-22T04:09:48;98853.41;;;4.41;100.00
29941;BME280;16801;53.562;10.038;2023-12-22T04:13:09;98842.41;;;4.53;100.00
29941;BME280;16801;53.562;10.038;2023-12-22T04:16:30;98858.22;;;4.64;100.00
29941;BME280;16801;53.562;10.038;2023-12-22T04:19:51;98850.66;;;4.60;100.00
29941;BME280;16801;53.562;10.038;2023-12-22T04:23:13;98876.81;;;4.56;100.00
29941;BME280;16801;53.562;10.038;2023-12-22T04:26:34;98868.69;;;4.48;100.00
29941;BME280;16801;53.562;10.038;2023-12-22T04:29:55;98851.94;;;4.56;100.00
29941;BME280;16801;53.562;10.038;2023-12-22T04:33:16;98856.06;;;4.50;100.00
29941;BME280;16801;53.562;10.038;2023-12-22T04:36:37;98851.09;;;4.55;100.00
29941;BME280;16801;53.562;10.038;2023-12-22T04:39:59;98876.81;;;4.56;100.00
29941;BME280;16801;53.562;10.038;2023-12-22T04:43:20;98869.28;;;4.69;100.00
29941;BME280;16801;53.562;10.038;2023-12-22T04:46:41;98860.69;;;4.75;100.00
29941;BME280;16801;53.562;10.038;2023-12-22T04:50:02;98871.16;;;4.86;100.00
29941;BME280;16801;53.562;10.038;2023-12-22T04:53:23;98878.88;;;4.90;100.00
29941;BME280;16801;53.562;10.038;2023-12-22T04:56:45;98871.53;;;4.92;100.00
29941;BME280;16801;53.562;10.038;2023-12-22T05:00:07;98855.22;;;4.95;100.00
29941;BME280;16801;53.562;10.038;2023-12-22T05:03:28;98855.31;;;5.03;100.00
29941;BME280;16801;53.562;10.038;2023-12-22T05:06:49;98855.41;;;5.11;100.00
29941;BME280;16801;53.562;10.038;2023-12-22T05:10:10;98867.47;;;5.15;100.00
29941;BME280;16801;53.562;10.038;2023-12-22T05:13:32;98868.53;;;4.77;100.00
29941;BME280;16801;53.562;10.038;2023-12-22T05:16:53;98914.69;;;4.60;100.00
29941;BME280;16801;53.562;10.038;2023-12-22T05:20:16;98947.44;;;4.52;100.00
29941;BME280;16801;53.562;10.038;2023-12-22T05:23:37;98903.00;;;4.34;100.00
29941;BME280;16801;53.562;10.038;2023-12-22T05:26:58;98903.69;;;4.36;100.00
29941;BME280;16801;53.562;10.038;2023-12-22T05:30:20;98921.00;;;4.22;100.00
29941;BME280;16801;53.562;10.038;2023-12-22T05:33:41;98869.38;;;4.14;100.00
29941;BME280;16801;53.562;10.038;2023-12-22T05:37:02;98912.44;;;4.19;100.00
29941;BME280;16801;53.562;10.038;2023-12-22T05:40:23;98916.06;;;4.27;100.00
29941;BME280;16801;53.562;10.038;2023-12-22T05:43:44;98935.72;;;4.26;100.00
29941;BME280;16801;53.562;10.038;2023-12-22T05:47:07;98979.84;;;3.92;100.00
29941;BME280;16801;53.562;10.038;2023-12-22T05:50:28;98988.53;;;3.84;100.00
29941;BME280;16801;53.562;10.038;2023-12-22T05:53:49;98964.56;;;3.75;100.00
29941;BME280;16801;53.562;10.038;2023-12-22T05:57:10;98977.31;;;3.62;100.00
29941;BME280;16801;53.562;10.038;2023-12-22T06:00:31;98987.66;;;3.55;100.00
29941;BME280;16801;53.562;10.038;2023-12-22T06:03:53;99001.53;;;3.49;100.00
29941;BME280;16801;53.562;10.038;2023-12-22T06:07:14;98997.06;;;3.50;100.00
29941;BME280;16801;53.562;10.038;2023-12-22T06:10:35;99008.41;;;3.52;100.00
29941;BME280;16801;53.562;10.038;2023-12-22T06:13:56;99010.66;;;3.56;100.00
29941;BME280;16801;53.562;10.038;2023-12-22T06:17:17;99005.19;;;3.67;100.00
29941;BME280;16801;53.562;10.038;2023-12-22T06:20:40;98997.09;;;3.69;100.00
29941;BME280;16801;53.562;10.038;2023-12-22T06:24:02;99002.69;;;3.66;100.00
29941;BME280;16801;53.562;10.038;2023-12-22T06:27:22;99016.16;;;3.64;100.00
29941;BME280;16801;53.562;10.038;2023-12-22T06:30:43;99009.84;;;3.75;100.00
29941;BME280;16801;53.562;10.038;2023-12-22T06:34:06;99001.28;;;3.90;100.00
29941;BME280;16801;53.562;10.038;2023-12-22T06:37:28;99020.66;;;4.02;100.00
29941;BME280;16801;53.562;10.038;2023-12-22T06:40:49;99033.69;;;4.05;100.00
29941;BME280;16801;53.562;10.038;2023-12-22T06:44:11;99035.25;;;4.17;100.00
29941;BME280;16801;53.562;10.038;2023-12-22T06:47:32;99037.63;;;4.20;100.00
29941;BME280;16801;53.562;10.038;2023-12-22T06:50:53;99026.81;;;4.22;100.00
29941;BME280;16801;53.562;10.038;2023-12-22T06:54:15;99025.41;;;4.27;100.00
29941;BME280;16801;53.562;10.038;2023-12-22T06:57:36;99039.16;;;4.32;100.00
29941;BME280;16801;53.562;10.038;2023-12-22T07:00:57;99046.72;;;4.37;100.00
29941;BME280;16801;53.562;10.038;2023-12-22T07:04:18;99047.97;;;4.42;100.00
29941;BME280;16801;53.562;10.038;2023-12-22T07:07:39;99054.16;;;4.43;100.00
29941;BME280;16801;53.562;10.038;2023-12-22T07:11:02;99064.84;;;4.52;100.00
29941;BME280;16801;53.562;10.038;2023-12-22T07:14:22;99059.88;;;4.57;100.00
29941;BME280;16801;53.562;10.038;2023-12-22T07:17:43;99057.78;;;4.51;100.00
29941;BME280;16801;53.562;10.038;2023-12-22T07:21:04;99068.03;;;4.56;100.00
29941;BME280;16801;53.562;10.038;2023-12-22T07:24:25;99071.56;;;4.56;100.00
29941;BME280;16801;53.562;10.038;2023-12-22T07:27:47;99084.59;;;4.59;100.00
29941;BME280;16801;53.562;10.038;2023-12-22T07:31:09;99096.56;;;4.65;100.00
29941;BME280;16801;53.562;10.038;2023-12-22T07:34:29;99094.72;;;4.75;100.00
29941;BME280;16801;53.562;10.038;2023-12-22T07:37:51;99103.81;;;4.82;100.00
29941;BME280;16801;53.562;10.038;2023-12-22T07:41:11;99121.38;;;4.84;100.00
29941;BME280;16801;53.562;10.038;2023-12-22T07:44:34;99143.31;;;4.88;100.00
29941;BME280;16801;53.562;10.038;2023-12-22T07:47:55;99150.19;;;4.62;100.00
29941;BME280;16801;53.562;10.038;2023-12-22T07:51:16;99150.47;;;4.49;100.00
29941;BME280;16801;53.562;10.038;2023-12-22T07:54:37;99161.28;;;4.38;100.00
29941;BME280;16801;53.562;10.038;2023-12-22T07:57:57;99165.09;;;4.36;100.00
29941;BME280;16801;53.562;10.038;2023-12-22T08:01:20;99172.78;;;4.39;100.00
29941;BME280;16801;53.562;10.038;2023-12-22T08:04:40;99180.38;;;4.43;100.00
29941;BME280;16801;53.562;10.038;2023-12-22T08:08:02;99192.59;;;4.55;100.00
29941;BME280;16801;53.562;10.038;2023-12-22T08:11:22;99193.97;;;4.40;100.00
29941;BME280;16801;53.562;10.038;2023-12-22T08:14:45;99207.31;;;4.21;100.00
29941;BME280;16801;53.562;10.038;2023-12-22T08:18:07;99212.69;;;4.00;100.00
29941;BME280;16801;53.562;10.038;2023-12-22T08:21:28;99197.69;;;3.90;100.00
29941;BME280;16801;53.562;10.038;2023-12-22T08:24:49;99207.44;;;3.80;100.00
29941;BME280;16801;53.562;10.038;2023-12-22T08:28:10;99222.03;;;3.76;100.00
29941;BME280;16801;53.562;10.038;2023-12-22T08:31:32;99217.41;;;3.78;100.00
29941;BME280;16801;53.562;10.038;2023-12-22T08:34:54;99226.00;;;3.81;100.00
29941;BME280;16801;53.562;10.038;2023-12-22T08:38:15;99224.28;;;3.80;100.00
29941;BME280;16801;53.562;10.038;2023-12-22T08:41:36;99225.31;;;3.98;100.00
29941;BME280;16801;53.562;10.038;2023-12-22T08:44:58;99213.50;;;5.27;100.00
29941;BME280;16801;53.562;10.038;2023-12-22T08:48:18;99217.75;;;6.30;100.00
29941;BME280;16801;53.562;10.038;2023-12-22T08:51:41;99216.44;;;7.65;100.00
29941;BME280;16801;53.562;10.038;2023-12-22T08:55:02;99212.03;;;7.13;100.00
29941;BME280;16801;53.562;10.038;2023-12-22T08:58:24;99218.56;;;6.75;100.00
29941;BME280;16801;53.562;10.038;2023-12-22T09:01:45;99230.94;;;6.76;100.00
29941;BME280;16801;53.562;10.038;2023-12-22T09:05:06;99244.53;;;5.37;100.00
29941;BME280;16801;53.562;10.038;2023-12-22T09:08:29;99233.88;;;5.18;100.00
29941;BME280;16801;53.562;10.038;2023-12-22T09:11:50;99227.38;;;5.40;100.00
29941;BME280;16801;53.562;10.038;2023-12-22T09:15:11;99234.34;;;6.33;100.00
29941;BME280;16801;53.562;10.038;2023-12-22T09:18:33;99218.28;;;7.65;100.00
29941;BME280;16801;53.562;10.038;2023-12-22T09:21:54;99237.41;;;8.29;100.00
29941;BME280;16801;53.562;10.038;2023-12-22T09:25:16;99220.47;;;10.14;100.00
29941;BME280;16801;53.562;10.038;2023-12-22T09:28:37;99229.72;;;11.11;94.26
29941;BME280;16801;53.562;10.038;2023-12-22T09:31:58;99169.25;;;11.20;83.62
29941;BME280;16801;53.562;10.038;2023-12-22T09:35:19;99227.78;;;11.94;80.46
29941;BME280;16801;53.562;10.038;2023-12-22T09:38:40;99237.47;;;12.47;77.56
29941;BME280;16801;53.562;10.038;2023-12-22T09:42:03;99225.09;;;11.57;77.12
29941;BME280;16801;53.562;10.038;2023-12-22T09:45:25;99243.88;;;9.97;83.49
29941;BME280;16801;53.562;10.038;2023-12-22T09:48:47;99266.50;;;9.56;84.27
29941;BME280;16801;53.562;10.038;2023-12-22T09:52:08;99240.00;;;12.34;77.64
29941;BME280;16801;53.562;10.038;2023-12-22T09:55:32;99235.47;;;12.92;71.02
29941;BME280;16801;53.562;10.038;2023-12-22T09:58:56;99224.72;;;13.13;68.55
29941;BME280;16801;53.562;10.038;2023-12-22T10:02:17;99231.72;;;10.87;75.63
29941;BME280;16801;53.562;10.038;2023-12-22T10:05:39;99237.13;;;8.40;86.57
29941;BME280;16801;53.562;10.038;2023-12-22T10:09:00;99237.50;;;10.53;100.00
29941;BME280;16801;53.562;10.038;2023-12-22T10:12:25;99238.03;;;9.86;100.00
29941;BME280;16801;53.562;10.038;2023-12-22T10:15:49;99250.50;;;9.71;100.00
29941;BME280;16801;53.562;10.038;2023-12-22T10:19:10;99245.84;;;8.08;97.45
29941;BME280;16801;53.562;10.038;2023-12-22T10:22:31;99255.59;;;7.15;100.00
29941;BME280;16801;53.562;10.038;2023-12-22T10:25:52;99263.41;;;6.91;100.00
29941;BME280;16801;53.562;10.038;2023-12-22T10:29:13;99260.41;;;6.76;100.00
29941;BME280;16801;53.562;10.038;2023-12-22T10:32:39;99275.00;;;6.64;100.00
29941;BME280;16801;53.562;10.038;2023-12-22T10:36:01;99267.50;;;6.50;100.00
29941;BME280;16801;53.562;10.038;2023-12-22T10:39:22;99261.50;;;6.38;100.00
29941;BME280;16801;53.562;10.038;2023-12-22T10:42:43;99269.84;;;6.35;100.00
29941;BME280;16801;53.562;10.038;2023-12-22T10:46:04;99267.53;;;6.13;100.00
29941;BME280;16801;53.562;10.038;2023-12-22T10:49:26;99287.63;;;5.90;100.00
29941;BME280;16801;53.562;10.038;2023-12-22T10:52:50;99293.31;;;5.58;100.00
29941;BME280;16801;53.562;10.038;2023-12-22T10:56:11;99273.78;;;5.39;100.00
29941;BME280;16801;53.562;10.038;2023-12-22T10:59:35;99281.81;;;5.29;100.00
29941;BME280;16801;53.562;10.038;2023-12-22T11:03:01;99303.16;;;5.39;100.00
29941;BME280;16801;53.562;10.038;2023-12-22T11:06:29;99285.44;;;5.47;100.00
29941;BME280;16801;53.562;10.038;2023-12-22T11:09:51;99301.06;;;5.33;100.00
29941;BME280;16801;53.562;10.038;2023-12-22T11:13:12;99316.81;;;5.26;100.00
29941;BME280;16801;53.562;10.038;2023-12-22T11:16:35;99305.16;;;5.37;100.00
29941;BME280;16801;53.562;10.038;2023-12-22T11:19:56;99298.25;;;5.34;100.00
29941;BME280;16801;53.562;10.038;2023-12-22T11:23:20;99310.78;;;5.34;100.00
29941;BME280;16801;53.562;10.038;2023-12-22T11:26:42;99313.88;;;5.29;100.00
29941;BME280;16801;53.562;10.038;2023-12-22T11:30:04;99297.38;;;5.62;100.00
29941;BME280;16801;53.562;10.038;2023-12-22T11:33:28;99287.38;;;7.71;100.00
29941;BME280;16801;53.562;10.038;2023-12-22T11:36:50;99283.66;;;8.23;100.00
29941;BME280;16801;53.562;10.038;2023-12-22T11:40:13;99303.38;;;6.57;100.00
29941;BME280;16801;53.562;10.038;2023-12-22T11:43:35;99296.88;;;6.60;100.00
29941;BME280;16801;53.562;10.038;2023-12-22T11:47:06;99282.09;;;8.96;100.00
29941;BME280;16801;53.562;10.038;2023-12-22T11:50:28;99278.69;;;11.60;100.00
29941;BME280;16801;53.562;10.038;2023-12-22T11:53:49;99272.38;;;10.77;100.00
29941;BME280;16801;53.562;10.038;2023-12-22T11:57:33;99267.44;;;12.67;100.00
29941;BME280;16801;53.562;10.038;2023-12-22T12:00:54;99260.06;;;12.75;95.29
29941;BME280;16801;53.562;10.038;2023-12-22T12:04:15;99264.06;;;13.79;88.01
29941;BME280;16801;53.562;10.038;2023-12-22T12:07:41;99263.81;;;12.96;85.15
29941;BME280;16801;53.562;10.038;2023-12-22T12:11:04;99276.25;;;13.89;84.65
29941;BME280;16801;53.562;10.038;2023-12-22T12:14:29;99270.44;;;12.57;90.36
29941;BME280;16801;53.562;10.038;2023-12-22T12:17:51;99281.19;;;12.22;91.25
29941;BME280;16801;53.562;10.038;2023-12-22T12:21:13;99270.75;;;10.99;98.51
29941;BME280;16801;53.562;10.038;2023-12-22T12:24:33;99275.91;;;9.28;100.00
29941;BME280;16801;53.562;10.038;2023-12-22T12:28:03;99275.53;;;9.87;100.00
29941;BME280;16801;53.562;10.038;2023-12-22T12:31:35;99271.19;;;10.41;100.00
29941;BME280;16801;53.562;10.038;2023-12-22T12:34:57;99277.38;;;8.98;100.00
29941;BME280;16801;53.562;10.038;2023-12-22T12:38:21;99271.63;;;8.01;100.00
29941;BME280;16801;53.562;10.038;2023-12-22T12:41:45;99270.13;;;8.33;100.00
29941;BME280;16801;53.562;10.038;2023-12-22T12:45:09;99274.25;;;7.68;100.00
29941;BME280;16801;53.562;10.038;2023-12-22T12:48:31;99267.91;;;7.25;100.00
29941;BME280;16801;53.562;10.038;2023-12-22T12:51:52;99262.03;;;6.87;100.00
29941;BME280;16801;53.562;10.038;2023-12-22T12:55:13;99254.69;;;6.71;100.00
29941;BME280;16801;53.562;10.038;2023-12-22T12:58:34;99280.19;;;6.66;100.00
29941;BME280;16801;53.562;10.038;2023-12-22T13:02:00;99292.44;;;6.51;100.00
29941;BME280;16801;53.562;10.038;2023-12-22T13:05:23;99285.81;;;6.45;100.00
29941;BME280;16801;53.562;10.038;2023-12-22T13:08:47;99273.97;;;6.30;100.00
29941;BME280;16801;53.562;10.038;2023-12-22T13:12:08;99279.00;;;6.33;100.00
29941;BME280;16801;53.562;10.038;2023-12-22T13:15:30;99271.56;;;6.27;100.00
29941;BME280;16801;53.562;10.038;2023-12-22T13:18:51;99269.59;;;6.29;100.00
29941;BME280;16801;53.562;10.038;2023-12-22T13:22:14;99266.47;;;6.33;100.00
29941;BME280;16801;53.562;10.038;2023-12-22T13:25:39;99272.00;;;6.22;100.00
29941;BME280;16801;53.562;10.038;2023-12-22T13:29:00;99266.66;;;6.22;100.00
29941;BME280;16801;53.562;10.038;2023-12-22T13:32:21;99253.88;;;6.16;100.00
29941;BME280;16801;53.562;10.038;2023-12-22T13:35:43;99264.56;;;6.16;100.00
29941;BME280;16801;53.562;10.038;2023-12-22T13:39:08;99255.94;;;6.22;100.00
29941;BME280;16801;53.562;10.038;2023-12-22T13:42:29;99259.28;;;6.79;100.00
29941;BME280;16801;53.562;10.038;2023-12-22T13:45:50;99251.28;;;7.22;100.00
29941;BME280;16801;53.562;10.038;2023-12-22T13:49:12;99252.31;;;6.86;100.00
29941;BME280;16801;53.562;10.038;2023-12-22T13:52:33;99267.41;;;6.42;100.00
29941;BME280;16801;53.562;10.038;2023-12-22T13:55:57;99279.41;;;6.38;100.00
29941;BME280;16801;53.562;10.038;2023-12-22T13:59:30;99284.88;;;6.36;100.00
29941;BME280;16801;53.562;10.038;2023-12-22T14:02:51;99273.50;;;6.34;100.00
29941;BME280;16801;53.562;10.038;2023-12-22T14:06:12;99271.81;;;6.33;100.00
29941;BME280;16801;53.562;10.038;2023-12-22T14:09:33;99276.97;;;6.17;100.00
29941;BME280;16801;53.562;10.038;2023-12-22T14:12:55;99285.81;;;6.18;100.00
29941;BME280;16801;53.562;10.038;2023-12-22T14:16:16;99296.63;;;6.26;100.00
29941;BME280;16801;53.562;10.038;2023-12-22T14:19:37;99290.19;;;6.19;100.00
29941;BME280;16801;53.562;10.038;2023-12-22T14:22:58;99281.91;;;6.12;100.00
29941;BME280;16801;53.562;10.038;2023-12-22T14:26:19;99280.91;;;6.13;100.00
29941;BME280;16801;53.562;10.038;2023-12-22T14:29:41;99262.38;;;6.02;100.00
29941;BME280;16801;53.562;10.038;2023-12-22T14:33:03;99290.69;;;6.05;100.00
29941;BME280;16801;53.562;10.038;2023-12-22T14:36:23;99269.63;;;5.92;100.00
29941;BME280;16801;53.562;10.038;2023-12-22T14:39:44;99302.94;;;5.98;100.00
29941;BME280;16801;53.562;10.038;2023-12-22T14:43:06;99294.56;;;7.27;100.00
29941;BME280;16801;53.562;10.038;2023-12-22T14:46:28;99296.16;;;7.81;100.00
29941;BME280;16801;53.562;10.038;2023-12-22T14:49:49;99285.38;;;7.98;100.00
29941;BME280;16801;53.562;10.038;2023-12-22T14:53:10;99276.91;;;6.54;100.00
29941;BME280;16801;53.562;10.038;2023-12-22T14:56:31;99292.31;;;6.15;100.00
29941;BME280;16801;53.562;10.038;2023-12-22T14:59:52;99303.59;;;6.09;100.00
29941;BME280;16801;53.562;10.038;2023-12-22T15:03:14;99298.56;;;5.97;100.00
29941;BME280;16801;53.562;10.038;2023-12-22T15:06:37;99305.19;;;5.93;100.00
29941;BME280;16801;53.562;10.038;2023-12-22T15:09:58;99300.44;;;5.87;100.00
29941;BME280;16801;53.562;10.038;2023-12-22T15:13:19;99300.84;;;5.92;100.00
29941;BME280;16801;53.562;10.038;2023-12-22T15:16:40;99310.53;;;5.93;100.00
29941;BME280;16801;53.562;10.038;2023-12-22T15:20:06;99315.63;;;5.86;100.00
29941;BME280;16801;53.562;10.038;2023-12-22T15:23:29;99319.31;;;5.85;100.00
29941;BME280;16801;53.562;10.038;2023-12-22T15:26:51;99321.69;;;5.88;100.00
29941;BME280;16801;53.562;10.038;2023-12-22T15:30:12;99322.81;;;5.86;100.00
29941;BME280;16801;53.562;10.038;2023-12-22T15:33:33;99320.28;;;5.84;100.00
29941;BME280;16801;53.562;10.038;2023-12-22T15:36:55;99316.78;;;5.84;100.00
29941;BME280;16801;53.562;10.038;2023-12-22T15:40:17;99334.50;;;5.85;100.00
29941;BME280;16801;53.562;10.038;2023-12-22T15:43:39;99326.75;;;5.82;100.00
29941;BME280;16801;53.562;10.038;2023-12-22T15:47:00;99334.63;;;5.83;100.00
29941;BME280;16801;53.562;10.038;2023-12-22T15:50:21;99325.50;;;5.66;100.00
29941;BME280;16801;53.562;10.038;2023-12-22T15:53:43;99317.25;;;5.50;100.00
29941;BME280;16801;53.562;10.038;2023-12-22T15:57:04;99315.69;;;5.38;100.00
29941;BME280;16801;53.562;10.038;2023-12-22T16:00:24;99329.34;;;5.35;100.00
29941;BME280;16801;53.562;10.038;2023-12-22T16:03:47;99318.66;;;5.35;100.00
29941;BME280;16801;53.562;10.038;2023-12-22T16:07:10;99324.00;;;5.35;100.00
29941;BME280;16801;53.562;10.038;2023-12-22T16:10:32;99322.44;;;5.33;100.00
29941;BME280;16801;53.562;10.038;2023-12-22T16:13:54;99310.34;;;5.38;100.00
29941;BME280;16801;53.562;10.038;2023-12-22T16:17:16;99314.56;;;5.41;100.00
29941;BME280;16801;53.562;10.038;2023-12-22T16:20:37;99316.84;;;5.36;100.00
29941;BME280;16801;53.562;10.038;2023-12-22T16:23:58;99313.28;;;5.45;100.00
29941;BME280;16801;53.562;10.038;2023-12-22T16:27:20;99316.25;;;5.42;100.00
29941;BME280;16801;53.562;10.038;2023-12-22T16:30:41;99324.00;;;5.35;100.00
29941;BME280;16801;53.562;10.038;2023-12-22T16:34:02;99316.97;;;5.15;100.00
29941;BME280;16801;53.562;10.038;2023-12-22T16:37:23;99330.19;;;5.17;100.00
29941;BME280;16801;53.562;10.038;2023-12-22T16:40:45;99334.13;;;5.13;100.00
29941;BME280;16801;53.562;10.038;2023-12-22T16:44:07;99334.69;;;5.16;100.00
29941;BME280;16801;53.562;10.038;2023-12-22T16:47:28;99315.53;;;5.11;100.00
29941;BME280;16801;53.562;10.038;2023-12-22T16:50:50;99325.41;;;5.11;100.00
29941;BME280;16801;53.562;10.038;2023-12-22T16:54:11;99339.31;;;5.14;100.00
29941;BME280;16801;53.562;10.038;2023-12-22T16:57:31;99371.50;;;5.22;100.00
29941;BME280;16801;53.562;10.038;2023-12-22T17:00:57;99372.06;;;5.16;100.00
29941;BME280;16801;53.562;10.038;2023-12-22T17:04:18;99366.28;;;5.11;100.00
29941;BME280;16801;53.562;10.038;2023-12-22T17:07:39;99363.34;;;5.05;100.00
29941;BME280;16801;53.562;10.038;2023-12-22T17:11:00;99360.25;;;5.00;100.00
29941;BME280;16801;53.562;10.038;2023-12-22T17:14:21;99368.81;;;4.94;100.00
29941;BME280;16801;53.562;10.038;2023-12-22T17:17:44;99369.22;;;4.99;100.00
29941;BME280;16801;53.562;10.038;2023-12-22T17:21:06;99388.22;;;6.57;100.00
29941;BME280;16801;53.562;10.038;2023-12-22T17:24:30;99382.22;;;5.60;100.00
29941;BME280;16801;53.562;10.038;2023-12-22T17:27:51;99386.69;;;5.12;100.00
29941;BME280;16801;53.562;10.038;2023-12-22T17:31:12;99395.81;;;5.00;100.00
29941;BME280;16801;53.562;10.038;2023-12-22T17:34:34;99370.72;;;4.82;100.00